Terminal Aerodrome Forecast
Issued by NWS Sioux Falls, SD

Home | Current Version | Previous Version | Text Only | Print | Product List | Glossary On
Versions: 1 2 3 4 5 6 7 8 9 10 11 12 13 14 15
881
FTUS43 KFSD 231732 AAB
TAFHON
TAF AMD
KHON 231732Z 2318/2418 35015G23KT P6SM VCSH SCT020 BKN030
     FM240200 35009KT P6SM BKN030
     FM240500 34006KT P6SM SCT025
     FM241400 05004KT P6SM SCT070=

USA.gov is the U.S. government's official web portal to all federal, state and local government web resources and services.